Date,TemperatureHighF,TemperatureAvgF,TemperatureLowF,DewpointHighF,DewpointAvgF,DewpointLowF,HumidityHigh,HumidityAvg,HumidityLow,PressureMaxIn,PressureMinIn,WindSpeedMaxMPH,WindSpeedAvgMPH,GustSpeedMaxMPH,PrecipitationSumIn
2014-1-1,30.7,25.1,19.0,20.0,14.8,9.0,72,65,56,30.45,30.27,2,0,4,0.00
2014-1-2,28.8,23.0,12.9,21.0,18.5,10.0,91,83,68,30.26,29.69,6,1,8,0.00
2014-1-3,16.9,10.7,2.1,12.0,3.5,-6.0,90,74,55,30.51,29.66,3,0,7,0.00
2014-1-4,26.0,13.9,0.7,15.0,2.9,-6.0,75,62,41,30.58,30.35,2,0,6,0.00
2014-1-5,40.9,28.3,19.2,40.0,25.8,14.0,98,90,73,30.35,29.79,2,0,6,0.00
2014-1-6,54.5,38.4,10.7,54.0,32.6,-5.0,98,81,45,29.80,29.43,12,2,13,0.37
2014-1-7,9.9,4.1,-0.7,-5.0,-10.5,-16.0,58,51,44,30.43,29.82,7,2,11,0.00
2014-1-8,18.3,11.4,4.6,4.0,-1.7,-7.0,68,56,46,30.62,30.44,3,0,6,0.00
2014-1-9,32.1,21.6,15.8,14.0,9.8,4.0,77,61,40,30.71,30.55,2,0,3,0.00
2014-1-10,35.7,29.3,23.4,35.0,25.3,13.0,97,85,64,30.62,30.24,0,0,1,0.00
2014-1-11,59.6,50.0,34.4,59.0,49.7,34.0,99,98,97,30.23,29.35,4,0,8,0.61
2014-1-12,48.7,39.3,31.8,47.0,31.2,26.0,92,73,61,30.09,29.44,6,1,9,0.00
2014-1-13,55.0,40.1,28.1,37.0,31.1,26.0,92,72,44,30.16,29.91,2,0,5,0.00
2014-1-14,44.9,43.5,41.5,44.0,40.7,35.0,97,90,76,29.91,29.69,2,0,5,0.24
2014-1-15,49.6,40.0,31.5,45.0,38.3,31.0,98,94,79,30.02,29.90,1,0,3,0.00
2014-1-16,38.0,35.0,29.4,36.0,31.8,26.0,93,87,81,29.97,29.86,1,0,3,0.00
2014-1-17,43.3,31.9,22.9,30.0,24.9,19.0,89,76,54,30.01,29.89,1,0,4,0.00
2014-1-18,36.5,31.0,21.7,32.0,25.4,13.0,95,80,68,29.90,29.71,4,1,7,0.03
2014-1-19,33.0,26.4,18.3,24.0,17.1,12.0,76,68,57,29.87,29.69,3,0,8,0.00
2014-1-20,42.9,35.3,29.2,29.0,24.6,20.0,77,65,51,29.90,29.61,4,1,6,0.00
2014-1-21,28.5,16.7,8.2,19.0,10.3,3.0,88,77,54,30.00,29.84,4,0,6,0.00
2014-1-22,16.0,7.5,0.2,2.0,-4.6,-8.0,76,59,41,30.04,29.81,4,0,4,0.00
2014-1-23,18.7,8.7,0.4,4.0,-1.4,-9.0,78,64,52,30.33,30.03,4,0,7,0.00
2014-1-24,18.2,10.1,3.0,2.0,-1.9,-5.0,75,60,42,30.42,30.12,5,0,7,0.00
2014-1-25,23.4,17.1,9.7,19.0,10.9,2.0,90,77,57,30.10,29.48,3,0,6,0.00
2014-1-26,22.4,17.8,11.6,15.0,6.8,-2.0,86,63,46,29.93,29.51,3,1,7,0.00
2014-1-27,37.8,26.4,16.9,27.0,14.5,0.0,83,62,40,30.10,29.64,6,1,10,0.00
2014-1-28,17.2,12.6,8.7,1.0,-2.8,-7.0,68,51,36,30.39,30.11,2,0,6,0.00
2014-1-29,21.2,12.4,6.9,6.0,-0.4,-5.0,85,59,36,30.33,30.15,3,0,5,0.00
2014-1-30,29.8,15.7,6.0,7.0,1.7,-4.0,67,55,35,30.50,30.23,2,0,3,0.00
2014-1-31,36.3,26.9,18.6,18.0,14.0,7.0,71,59,43,30.26,30.13,3,0,6,0.00
2014-2-1,46.5,34.6,28.0,31.0,22.3,17.0,93,62,41,30.35,30.05,1,0,3,0.15
2014-2-2,50.3,39.7,32.9,36.0,33.4,30.0,97,79,53,30.11,29.94,2,0,5,0.06
2014-2-3,36.9,30.1,22.9,31.0,28.3,20.0,95,93,79,30.34,30.09,2,0,3,0.01
2014-2-4,35.1,25.1,16.8,27.0,20.8,14.0,90,84,68,30.50,30.26,0,0,0,0.19
2014-2-5,32.1,30.2,26.9,31.0,28.8,25.0,96,94,88,30.26,29.68,0,0,0,0.01
2014-2-6,31.0,21.9,15.8,26.0,18.2,13.0,92,85,72,30.33,30.02,0,0,0,0.00
2014-2-7,33.5,23.0,16.2,22.0,17.1,13.0,89,79,63,30.37,30.26,0,0,0,0.01
2014-2-8,25.9,19.8,12.9,15.0,10.6,7.0,78,68,53,30.38,30.19,0,0,0,0.00
2014-2-9,29.4,21.0,14.4,20.0,12.8,7.0,92,72,49,30.23,30.05,1,0,3,0.00
2014-2-10,28.2,19.6,13.4,18.0,10.2,5.0,92,68,48,30.32,30.05,0,0,0,0.00
2014-2-11,25.1,15.6,9.5,7.0,4.3,2.0,77,62,42,30.52,30.32,2,0,4,0.00
2014-2-12,25.4,15.6,4.8,13.0,5.9,0.0,80,66,44,30.62,30.33,1,0,4,0.00
2014-2-13,31.9,28.2,18.2,31.0,26.9,14.0,96,95,82,30.32,29.07,1,0,3,0.00
2014-2-14,38.0,31.7,27.3,31.0,26.5,22.0,96,82,62,29.80,29.09,0,0,0,0.14
2014-2-15,35.1,30.1,23.3,29.0,24.9,15.0,95,81,69,29.81,29.60,3,0,6,0.01
2014-2-16,27.0,21.0,15.7,14.0,10.3,7.0,72,64,51,30.16,29.82,0,0,0,0.00
2014-2-17,33.3,21.1,11.9,9.0,5.2,1.0,71,52,30,30.42,30.16,2,0,3,0.01
2014-2-18,38.5,29.3,22.1,32.0,22.8,9.0,94,77,57,30.35,30.00,7,0,8,0.19
2014-2-19,44.3,34.1,25.2,40.0,30.7,21.0,96,87,77,30.13,29.72,5,0,7,0.16
2014-2-20,50.4,38.2,30.6,35.0,28.2,24.0,95,69,39,30.29,30.04,2,0,4,0.00
2014-2-21,42.8,36.9,33.4,42.0,36.1,32.0,98,97,95,30.04,29.68,3,0,7,0.39
2014-2-22,53.6,41.3,30.2,34.0,27.3,22.0,97,62,29,30.09,29.95,5,1,10,0.01
2014-2-23,53.8,42.9,34.8,32.0,29.1,27.0,82,60,37,30.04,29.87,7,0,7,0.00
2014-2-24,39.5,31.7,22.9,29.0,17.5,10.0,71,56,40,30.11,29.84,6,1,10,0.00
2014-2-25,30.3,24.0,18.0,17.0,11.9,9.0,68,61,52,30.12,29.97,5,1,8,0.00
2014-2-26,29.9,21.7,12.4,20.0,8.9,-5.0,87,59,36,30.01,29.85,8,1,9,0.01
2014-2-27,30.0,18.5,8.7,12.0,2.2,-11.0,66,50,38,30.14,29.65,8,1,11,0.00
2014-2-28,23.4,12.3,3.6,-1.0,-5.7,-12.0,59,45,32,30.46,30.15,2,0,5,0.00
2014-3-1,38.5,24.5,11.0,16.0,9.4,-2.0,73,54,32,30.45,30.18,2,0,5,0.00
2014-3-2,38.6,32.5,28.2,30.0,22.4,15.0,93,67,54,30.17,30.01,1,0,4,0.00
2014-3-3,27.6,18.3,11.6,15.0,4.6,-1.0,78,56,46,30.36,30.03,7,1,7,0.00
2014-3-4,29.9,18.1,7.0,8.0,1.2,-4.0,63,49,28,30.45,30.29,2,0,4,0.00
2014-3-5,38.2,27.4,19.2,15.0,9.7,5.0,68,49,31,30.46,30.24,3,0,5,0.00
2014-3-6,32.6,21.1,11.7,14.0,6.1,-1.0,74,54,35,30.66,30.46,2,0,9,0.00
2014-3-7,36.5,29.6,22.4,27.0,20.7,13.0,77,70,63,30.50,29.95,2,0,5,0.00
2014-3-8,52.3,40.1,28.6,32.0,29.7,27.0,93,68,43,29.95,29.81,3,0,6,0.00
2014-3-9,41.6,36.4,33.2,29.0,22.0,16.0,82,57,35,30.05,29.91,4,1,7,0.00
2014-3-10,50.8,39.8,33.0,31.0,24.7,19.0,65,55,42,29.97,29.64,3,0,4,0.00
2014-3-11,63.1,49.3,39.1,39.0,34.7,30.0,72,58,40,29.72,29.59,4,1,5,0.00
2014-3-12,56.2,49.3,30.6,53.0,41.9,26.0,96,76,62,29.69,29.03,5,0,9,0.18
2014-3-13,29.4,21.4,15.4,24.0,5.7,0.0,79,52,35,30.12,29.18,8,3,12,0.00
2014-3-14,47.3,30.4,17.3,26.0,11.4,-1.0,66,46,26,30.26,29.93,4,1,8,0.00
2014-3-15,56.4,46.8,36.1,32.0,26.7,24.0,66,47,30,30.02,29.79,6,2,10,0.00
2014-3-16,40.1,32.0,27.3,23.0,11.6,5.0,60,43,32,30.21,30.02,4,1,7,0.00
2014-3-17,33.1,26.3,20.4,9.0,3.9,-5.0,45,38,30,30.16,30.06,4,0,6,0.00
2014-3-18,43.9,31.0,21.1,25.0,12.7,2.0,87,49,26,30.32,30.15,3,0,5,0.00
2014-3-19,40.5,34.8,27.8,40.0,31.1,25.0,97,86,77,30.32,29.85,3,0,5,0.88
2014-3-20,51.8,42.7,37.5,41.0,31.9,22.0,97,69,42,29.94,29.77,7,2,10,0.01
2014-3-21,50.8,40.5,32.1,25.0,21.1,19.0,63,47,31,30.07,29.93,6,1,9,0.00
2014-3-22,62.6,46.9,35.5,38.0,29.0,20.0,79,52,28,30.06,29.79,6,1,10,0.00
2014-3-23,41.6,35.4,24.0,26.0,17.8,5.0,69,50,31,30.14,29.99,4,1,8,0.00
2014-3-24,34.4,24.6,17.0,8.0,5.1,3.0,58,44,29,30.27,30.13,4,1,6,0.00
2014-3-25,39.1,29.1,17.7,23.0,12.2,5.0,76,50,32,30.19,29.89,3,0,7,0.00
2014-3-26,35.0,29.2,21.4,20.0,10.4,3.0,69,47,31,30.26,29.78,8,2,11,0.00
2014-3-27,44.9,29.8,15.5,19.0,8.8,5.0,67,44,22,30.46,30.27,5,0,7,0.00
2014-3-28,59.2,45.6,30.8,50.0,38.2,19.0,93,76,57,30.29,29.99,5,1,9,0.06
2014-3-29,52.0,45.6,42.6,48.0,42.7,39.0,96,90,74,30.18,29.68,4,1,10,2.22
2014-3-30,45.4,42.6,37.9,45.0,41.7,37.0,98,96,94,29.70,29.47,5,2,10,0.79
2014-3-31,53.7,41.8,33.1,39.0,33.7,30.0,96,75,49,30.10,29.70,4,1,7,0.08
2014-4-1,58.9,43.7,31.8,36.0,31.5,27.0,84,65,39,30.17,30.00,2,0,5,0.00
2014-4-2,54.6,42.6,35.9,45.0,38.9,33.0,95,87,68,30.17,30.06,1,0,2,0.01
2014-4-3,65.9,52.0,40.7,44.0,32.2,22.0,94,54,19,30.16,30.00,2,0,4,0.04
2014-4-4,42.9,39.5,38.1,41.0,38.5,37.0,97,95,92,30.08,29.77,3,0,6,0.39
2014-4-5,52.0,42.9,35.9,42.0,33.4,24.0,98,72,45,30.10,29.74,7,2,11,0.00
2014-4-6,60.5,43.9,30.0,31.0,23.3,19.0,73,48,21,30.23,30.10,3,0,6,0.00
2014-4-7,50.6,42.4,33.8,46.0,36.0,29.0,97,79,52,30.23,29.70,3,0,6,0.46
2014-4-8,62.6,52.6,44.6,56.0,44.7,34.0,98,77,48,29.69,29.43,9,1,10,0.21
2014-4-9,61.6,49.0,39.3,38.0,31.7,24.0,82,55,29,30.03,29.64,7,1,8,0.00
2014-4-10,66.9,50.4,35.2,34.0,27.2,18.0,56,42,28,30.23,30.04,5,1,11,0.00
2014-4-11,75.9,59.8,49.6,52.0,42.1,31.0,89,54,31,30.05,29.94,4,0,9,0.00
2014-4-12,73.7,58.4,43.8,52.0,39.9,32.0,93,57,23,30.24,30.02,6,0,6,0.00
2014-4-13,82.7,63.8,47.3,55.0,48.3,34.0,83,60,34,30.21,29.98,6,1,12,0.00
2014-4-14,79.4,67.0,59.2,58.0,55.1,52.0,89,68,40,30.02,29.84,7,1,13,0.00
2014-4-15,63.6,55.1,32.0,63.0,53.0,31.0,97,92,80,29.93,29.52,4,1,10,0.60
2014-4-16,47.4,35.9,26.6,31.0,21.7,18.0,96,59,34,30.58,29.92,4,1,9,0.03
2014-4-17,51.8,39.1,31.3,32.0,25.4,18.0,88,60,41,30.74,30.59,1,0,5,0.00
2014-4-18,50.0,40.1,32.0,33.0,29.9,28.0,91,69,43,30.63,30.29,3,0,4,0.00
2014-4-19,66.7,51.2,35.5,39.0,30.0,23.0,90,52,20,30.36,30.24,3,0,9,0.00
2014-4-20,58.6,48.3,37.6,33.0,27.2,21.0,73,46,30,30.49,30.34,2,0,6,0.00
2014-4-21,72.2,51.5,35.3,43.0,29.8,18.0,77,49,15,30.33,29.89,3,0,4,0.00
2014-4-22,75.0,57.1,44.9,53.0,46.9,42.0,94,71,35,29.89,29.53,5,0,7,0.00
2014-4-23,58.4,50.4,40.3,47.0,36.4,29.0,76,60,44,29.87,29.52,5,2,9,0.00
2014-4-24,61.8,48.6,37.7,29.0,20.6,14.0,64,36,19,30.04,29.86,5,1,9,0.00
2014-4-25,68.2,52.1,39.3,42.0,25.6,18.0,83,38,22,30.06,29.77,4,0,6,0.03
2014-4-26,68.8,52.3,44.5,48.0,44.1,39.0,97,77,38,29.89,29.71,4,0,5,0.49
2014-4-27,58.8,49.6,41.8,38.0,34.6,32.0,76,58,40,30.13,29.89,3,0,8,0.00
2014-4-28,66.9,52.1,38.9,38.0,34.9,33.0,84,55,30,30.14,30.02,4,0,5,0.00
2014-4-29,49.9,44.3,39.9,41.0,38.9,37.0,94,82,65,30.40,30.11,4,0,7,0.09
2014-4-30,51.0,43.8,38.9,51.0,43.0,38.0,98,97,92,30.40,29.97,4,1,8,5.02
2014-5-1,78.0,63.9,50.3,62.0,55.5,49.0,99,78,39,29.96,29.69,2,0,5,0.22
2014-5-2,66.4,58.7,50.9,48.0,41.6,36.0,81,55,37,29.87,29.73,3,1,9,0.00
2014-5-3,69.3,56.9,46.7,50.0,41.6,37.0,93,59,37,29.89,29.75,3,0,7,0.05
2014-5-4,62.0,54.1,48.7,49.0,39.0,27.0,94,60,35,29.82,29.69,6,1,9,0.01
2014-5-5,67.8,55.9,45.3,39.0,31.9,25.0,69,43,24,29.93,29.82,4,1,6,0.00
2014-5-6,71.1,57.2,45.9,37.0,31.8,26.0,55,40,23,30.09,29.88,3,0,5,0.00
2014-5-7,73.0,57.1,44.8,44.0,34.4,30.0,69,44,27,30.25,30.09,3,0,6,0.00
2014-5-8,57.0,53.5,49.9,55.0,51.8,43.0,97,94,67,30.20,30.09,0,0,2,0.47
2014-5-9,63.0,57.2,53.4,60.0,56.2,52.0,98,96,88,30.18,30.00,0,0,3,0.00
2014-5-10,80.9,65.1,57.0,68.0,60.8,57.0,99,87,55,29.99,29.84,3,0,8,0.24
2014-5-11,81.0,66.3,53.5,61.0,51.3,45.0,97,64,30,30.09,29.88,2,0,5,0.01
2014-5-12,83.9,71.0,58.6,63.0,55.0,48.0,87,59,41,30.13,30.03,2,0,4,0.00
2014-5-13,71.2,62.7,49.3,62.0,50.3,40.0,90,66,42,30.29,30.02,3,0,7,0.00
2014-5-14,74.9,56.9,48.1,59.0,50.9,44.0,97,81,57,30.32,30.24,2,0,5,0.01
2014-5-15,74.0,65.0,56.1,70.0,63.7,55.0,99,95,83,30.24,30.07,2,0,4,0.03
2014-5-16,68.7,65.1,57.2,67.0,64.0,57.0,98,96,89,30.06,29.78,3,0,7,0.00
2014-5-17,67.6,57.7,49.7,55.0,47.1,40.0,98,71,42,30.13,29.86,2,0,5,0.00
2014-5-18,64.2,55.3,45.9,44.0,40.7,36.0,85,60,41,30.21,30.12,3,0,3,0.00
2014-5-19,70.2,56.8,44.8,46.0,39.5,34.0,71,55,31,30.23,30.09,2,0,4,0.00
2014-5-20,78.5,63.2,50.2,48.0,43.1,38.0,74,52,24,30.16,29.99,2,0,4,0.00
2014-5-21,71.3,65.0,59.0,59.0,52.9,48.0,87,66,51,30.02,29.89,2,0,4,0.00
2014-5-22,65.8,61.0,56.7,64.0,59.4,56.0,97,94,87,29.90,29.78,1,0,4,0.00
2014-5-23,72.2,60.4,55.1,60.0,56.4,51.0,98,88,52,29.96,29.84,1,0,3,0.00
2014-5-24,68.8,58.1,52.6,59.0,54.8,51.0,97,89,65,30.11,29.93,1,0,4,0.00
2014-5-25,79.4,64.6,51.1,59.0,51.5,45.0,98,68,34,30.13,30.03,2,0,3,0.05
2014-5-26,86.2,72.6,61.1,56.0,52.0,46.0,68,50,32,30.07,29.91,3,0,6,0.00
2014-5-27,85.6,73.4,65.4,67.0,60.3,54.0,87,65,46,29.92,29.79,1,0,6,0.00
2014-5-28,67.1,58.4,52.5,64.0,55.1,47.0,94,89,80,30.17,29.79,2,0,5,0.02
2014-5-29,66.5,55.6,49.4,51.0,45.1,39.0,83,69,48,30.23,30.16,2,0,4,0.00
2014-5-30,76.8,62.6,50.5,55.0,49.9,42.0,85,65,41,30.17,29.99,2,0,6,0.00
2014-5-31,72.6,62.1,53.6,52.0,48.1,42.0,82,62,36,30.30,30.08,3,0,9,0.00
2014-6-1,78.7,63.4,50.3,51.0,43.7,37.0,85,53,25,30.38,30.26,3,0,4,0.00
2014-6-2,84.5,68.4,53.3,60.0,51.0,41.0,75,55,39,30.28,30.04,4,0,5,0.00
2014-6-3,90.4,72.1,61.3,69.0,63.0,55.0,97,75,44,30.04,29.81,2,0,6,0.44
2014-6-4,83.1,71.3,64.6,67.0,62.2,54.0,98,75,44,29.86,29.74,1,0,3,0.00
2014-6-5,75.5,63.9,59.3,64.0,58.3,53.0,98,83,57,29.82,29.65,2,0,4,0.02
2014-6-6,74.2,64.1,56.7,57.0,52.7,49.0,78,67,50,29.96,29.81,3,0,4,0.00
2014-6-7,81.9,68.4,55.2,58.0,54.1,51.0,86,62,39,30.02,29.93,1,0,4,0.00
2014-6-8,87.2,72.7,62.0,64.0,57.3,52.0,85,61,34,29.98,29.86,3,0,3,0.00
2014-6-9,68.4,64.1,59.9,66.0,61.9,54.0,98,93,63,29.96,29.90,2,0,3,0.01
2014-6-10,77.2,68.7,63.1,71.0,66.6,63.0,99,93,79,29.98,29.92,2,0,3,0.00
2014-6-11,66.6,62.1,58.4,66.0,60.7,57.0,98,95,87,30.11,29.99,2,0,6,0.00
2014-6-12,68.5,63.0,58.4,68.0,62.4,58.0,99,98,96,30.10,29.93,2,0,4,0.00
2014-6-13,82.1,68.4,64.6,74.0,67.1,64.0,99,96,71,29.93,29.71,2,0,6,0.00
2014-6-14,73.5,65.4,56.6,67.0,59.0,49.0,99,81,56,30.04,29.79,1,0,4,0.00
2014-6-15,80.3,65.9,54.6,59.0,55.2,51.0,89,70,44,30.13,30.04,2,0,3,0.00
2014-6-16,85.8,71.1,60.9,64.0,59.5,55.0,83,68,46,30.17,30.05,2,0,4,0.00
2014-6-17,90.9,78.2,66.5,71.0,66.2,62.0,88,68,44,30.07,29.89,2,0,3,0.00
2014-6-18,89.0,79.9,73.9,70.0,66.4,62.0,83,64,44,29.97,29.82,2,0,4,0.00
2014-6-19,74.6,69.7,66.2,70.0,65.7,63.0,96,87,69,30.02,29.91,2,0,3,0.00
2014-6-20,80.2,68.4,57.6,65.0,52.5,47.0,95,59,36,30.03,29.91,1,0,2,0.00
2014-6-21,79.4,67.2,57.1,56.0,51.2,47.0,74,58,39,29.98,29.88,1,0,4,0.00
2014-6-22,80.1,68.0,58.8,62.0,56.5,53.0,87,68,47,30.04,29.92,1,0,3,0.00
2014-6-23,82.8,70.7,60.3,64.0,58.6,55.0,90,67,47,30.16,30.04,2,0,4,0.00
2014-6-24,86.7,72.2,61.7,63.0,58.6,54.0,86,64,41,30.16,30.01,3,0,6,0.00
2014-6-25,90.2,74.7,65.6,74.0,69.0,60.0,96,83,52,30.04,29.83,1,0,4,0.00
2014-6-26,84.2,73.9,66.9,72.0,68.3,65.0,98,84,60,29.96,29.82,1,0,2,0.00
2014-6-27,83.9,71.7,64.1,67.0,63.4,57.0,92,76,53,30.23,29.97,1,0,3,0.00
2014-6-28,87.1,72.1,61.6,63.0,58.5,54.0,88,65,33,30.29,30.21,1,0,3,0.00
2014-6-29,86.2,72.9,62.8,66.0,60.1,53.0,88,66,43,30.27,30.12,1,0,4,0.00
2014-6-30,87.5,74.2,63.1,68.0,62.8,54.0,89,69,46,30.13,29.94,2,0,4,0.00
2014-7-1,90.1,78.2,67.4,74.0,69.0,64.0,94,75,55,29.97,29.82,4,0,6,0.00
2014-7-2,92.2,78.5,70.5,77.0,72.0,68.0,97,81,57,29.95,29.81,1,0,5,0.00
2014-7-3,88.1,75.7,68.3,79.0,72.7,68.0,99,91,70,30.00,29.86,1,0,5,0.00
2014-7-4,70.7,66.9,62.2,68.0,62.7,52.0,98,87,65,30.05,29.91,2,0,6,0.00
2014-7-5,81.6,68.4,57.3,59.0,54.4,51.0,80,62,41,30.18,30.05,1,0,4,0.00
2014-7-6,87.1,72.8,60.6,62.0,57.0,53.0,77,59,38,30.12,29.95,4,0,6,0.04
2014-7-7,90.8,78.4,67.9,70.0,65.6,61.0,85,66,46,29.95,29.76,3,0,8,0.00
2014-7-8,91.5,78.8,69.1,75.0,69.2,66.0,96,74,49,29.85,29.67,3,0,11,0.08
2014-7-9,88.0,75.4,66.9,70.0,66.5,65.0,93,75,52,29.96,29.78,3,0,5,0.00
2014-7-10,83.2,72.3,65.8,67.0,64.5,63.0,91,77,55,30.14,29.95,2,0,3,0.00
2014-7-11,84.3,73.2,65.2,65.0,61.8,58.0,93,70,45,30.23,30.13,3,0,5,0.00
2014-7-12,87.9,75.5,64.8,66.0,63.1,61.0,92,68,43,30.24,30.12,2,0,4,0.00
2014-7-13,86.1,75.5,68.1,75.0,70.2,63.0,96,84,67,30.13,29.89,2,0,5,0.33
2014-7-14,85.2,73.6,68.7,76.0,71.4,68.0,98,93,72,29.96,29.81,1,0,3,1.48
2014-7-15,81.0,73.9,70.8,78.0,72.7,70.0,99,96,86,29.83,29.73,1,0,2,0.58
2014-7-16,81.3,70.7,62.5,70.0,64.4,58.0,99,82,53,29.90,29.75,0,0,3,0.03
2014-7-17,82.6,69.7,61.1,64.0,59.1,55.0,91,70,46,30.12,29.89,2,0,6,0.00
2014-7-18,81.4,69.2,58.2,62.0,56.8,53.0,89,66,43,30.24,30.12,2,0,3,0.00
2014-7-19,76.3,68.8,64.0,63.0,59.0,55.0,84,71,54,30.25,30.18,1,0,3,0.00
2014-7-20,78.5,68.8,63.7,66.0,62.0,58.0,92,79,63,30.18,30.11,3,0,5,0.00
2014-7-21,82.7,71.2,61.7,66.0,63.3,60.0,96,78,53,30.21,30.14,1,0,3,0.00
2014-7-22,87.0,75.3,65.1,73.0,66.7,61.0,90,75,58,30.19,30.06,1,0,4,0.00
2014-7-23,88.4,76.5,67.2,77.0,69.7,63.0,97,80,63,30.05,29.78,2,0,6,0.21
2014-7-24,79.8,70.8,65.7,70.0,63.6,56.0,97,79,56,29.92,29.81,1,0,3,0.01
2014-7-25,83.6,70.0,59.9,63.0,57.5,54.0,85,66,41,30.04,29.92,1,0,5,0.00
2014-7-26,78.6,70.2,63.0,69.0,64.2,58.0,93,81,66,30.01,29.90,2,0,3,0.00
2014-7-27,87.3,74.9,67.5,73.0,69.2,67.0,98,84,57,29.91,29.65,3,0,3,0.07
2014-7-28,81.5,71.4,63.7,72.0,65.8,59.0,98,84,55,29.71,29.53,2,0,7,0.64
2014-7-29,73.8,65.2,57.8,58.0,56.1,54.0,89,73,54,29.99,29.72,1,0,4,0.00
2014-7-30,80.2,67.4,57.5,57.0,54.7,52.0,83,65,42,30.05,29.97,1,0,3,0.00
2014-7-31,84.7,71.0,60.3,66.0,60.1,55.0,85,70,44,30.15,30.06,1,0,4,0.00
2014-8-1,81.0,70.7,65.9,71.0,67.4,64.0,97,89,67,30.22,30.15,1,0,3,0.09
2014-8-2,72.9,67.2,62.3,68.0,64.5,62.0,98,91,73,30.20,30.10,2,0,5,0.34
2014-8-3,72.5,67.1,63.2,68.0,65.0,62.0,98,93,81,30.14,30.04,0,0,2,0.07
2014-8-4,85.5,73.3,66.0,70.0,66.3,64.0,98,80,51,30.09,30.03,1,0,3,0.00
2014-8-5,89.0,75.9,66.3,69.0,64.9,60.0,93,71,44,30.05,29.91,0,0,3,0.00
2014-8-6,84.1,71.5,65.1,67.0,63.0,58.0,91,75,53,29.92,29.85,0,0,2,0.00
2014-8-7,82.2,69.4,58.7,63.0,56.6,52.0,83,65,38,30.03,29.91,0,0,2,0.00
2014-8-8,81.4,68.9,59.5,60.0,56.1,52.0,82,65,45,30.11,30.03,1,0,2,0.00
2014-8-9,86.1,72.0,62.5,62.0,57.9,55.0,81,63,39,30.13,30.07,1,0,5,0.00
2014-8-10,86.3,73.4,63.9,62.0,59.6,56.0,84,64,38,30.15,30.08,4,0,4,0.00
2014-8-11,84.3,73.2,64.8,65.0,60.7,56.0,91,67,38,30.15,30.09,0,0,7,0.00
2014-8-12,76.3,69.8,66.8,70.0,66.9,65.0,97,90,79,30.09,29.84,2,0,3,0.14
2014-8-13,82.3,71.1,65.4,73.0,66.7,60.0,98,86,61,29.82,29.67,1,0,4,0.38
2014-8-14,77.9,66.8,57.3,60.0,55.4,53.0,87,68,43,29.90,29.79,1,0,5,0.00
2014-8-15,71.6,62.9,55.0,56.0,52.8,50.0,87,71,52,30.00,29.90,1,0,6,0.00
2014-8-16,80.8,67.2,57.5,57.0,53.8,51.0,83,64,39,30.03,29.92,2,0,4,0.00
2014-8-17,81.9,69.5,61.4,66.0,58.5,52.0,85,69,50,29.93,29.83,1,0,3,0.00
2014-8-18,81.8,68.3,56.6,61.0,56.7,54.0,91,68,46,29.94,29.83,1,0,3,0.00
2014-8-19,83.1,69.4,59.1,66.0,59.9,54.0,85,73,51,29.95,29.87,2,0,4,0.00
2014-8-20,84.6,72.1,64.8,66.0,63.0,58.0,93,75,51,30.04,29.94,0,0,3,0.00
2014-8-21,84.7,70.2,62.0,67.0,63.4,60.0,97,80,51,30.07,29.99,2,0,3,1.09
2014-8-22,73.1,66.7,62.2,67.0,63.7,60.0,98,90,73,30.06,29.99,0,0,2,0.20
2014-8-23,69.9,65.4,62.8,65.0,61.3,58.0,92,86,80,30.13,30.04,1,0,3,0.01
2014-8-24,80.3,67.6,59.8,64.0,60.3,59.0,96,79,49,30.16,30.11,2,0,5,0.00
2014-8-25,86.9,71.5,60.9,65.0,61.0,59.0,94,72,41,30.19,30.12,3,0,4,0.00
2014-8-26,87.7,73.8,65.3,69.0,64.2,61.0,86,73,49,30.17,30.07,0,0,3,0.00
2014-8-27,91.6,75.8,65.2,70.0,66.4,62.0,93,74,47,30.09,29.86,3,0,5,0.00
2014-8-28,80.1,70.3,59.5,70.0,57.5,49.0,89,65,43,30.06,29.85,1,0,4,0.00
2014-8-29,80.6,65.3,55.9,57.0,52.7,49.0,85,66,41,30.26,30.07,2,0,4,0.00
2014-8-30,75.3,67.3,58.0,66.0,60.0,54.0,89,78,62,30.28,30.16,1,0,4,0.00
2014-8-31,90.3,74.5,67.4,75.0,69.5,63.0,94,85,55,30.17,29.96,1,0,5,0.01
2014-9-1,87.2,77.7,71.0,74.0,72.1,70.0,97,84,61,30.02,29.92,2,0,5,0.00
2014-9-2,91.9,80.0,72.4,74.0,71.2,67.0,98,77,49,29.95,29.81,2,0,9,0.00
2014-9-3,84.7,73.7,65.0,68.0,63.2,57.0,91,71,40,30.12,29.84,2,0,6,0.00
2014-9-4,87.9,75.0,65.5,65.0,61.3,57.0,82,64,40,30.20,30.11,1,0,4,0.00
2014-9-5,88.2,75.2,67.8,75.0,70.2,64.0,96,85,62,30.18,30.02,1,0,3,0.00
2014-9-6,90.8,74.7,64.1,76.0,71.7,63.0,97,91,55,30.02,29.85,2,0,3,0.66
2014-9-7,81.2,67.6,60.2,64.0,59.6,54.0,97,78,46,30.20,29.95,1,0,3,0.00
2014-9-8,76.0,65.9,58.5,62.0,57.0,53.0,84,73,56,30.32,30.20,2,0,5,0.00
2014-9-9,72.0,64.6,58.8,63.0,58.7,54.0,93,81,69,30.27,30.15,3,0,6,0.00
2014-9-10,78.0,67.4,60.7,62.0,59.7,56.0,93,77,55,30.14,30.03,4,0,4,0.00
2014-9-11,82.0,70.2,63.1,72.0,66.0,59.0,97,87,70,30.03,29.83,2,0,6,0.00
2014-9-12,78.5,64.6,55.3,58.0,54.1,51.0,88,70,45,30.19,29.95,2,0,4,0.00
2014-9-13,64.1,59.1,53.9,61.0,55.6,49.0,97,88,75,30.19,30.10,2,0,5,0.08
2014-9-14,71.8,57.1,48.3,54.0,49.0,46.0,95,76,44,30.29,30.17,1,0,5,0.00
2014-9-15,74.0,58.9,48.6,52.0,47.6,44.0,90,69,38,30.26,30.09,2,0,5,0.00
2014-9-16,68.5,59.1,54.5,61.0,54.9,51.0,98,86,67,30.09,29.97,1,0,3,0.38
2014-9-17,64.8,56.9,51.7,52.0,49.1,45.0,90,76,51,30.08,29.98,1,0,3,0.00
2014-9-18,77.3,62.3,53.7,54.0,51.5,49.0,92,70,41,30.11,29.96,1,0,3,0.00
2014-9-19,68.1,56.8,50.3,51.0,48.5,42.0,92,75,51,30.38,30.12,3,0,7,0.00
2014-9-20,75.9,63.7,53.1,62.0,57.1,51.0,95,80,56,30.35,30.07,2,0,4,0.00
2014-9-21,75.5,67.5,63.3,69.0,65.3,62.0,97,92,78,30.07,29.62,1,0,3,0.00
2014-9-22,70.2,61.6,51.2,65.0,52.2,41.0,94,72,49,30.19,29.64,1,0,5,0.00
2014-9-23,73.7,60.2,45.7,50.0,45.6,40.0,83,61,36,30.42,30.27,1,0,4,0.00
2014-9-24,69.7,60.4,52.2,56.0,52.6,49.0,91,76,54,30.56,30.42,2,0,6,0.00
2014-9-25,61.4,57.9,54.4,58.0,54.9,52.0,97,90,73,30.47,30.23,3,0,6,0.45
2014-9-26,77.3,62.5,52.0,56.0,52.5,49.0,94,72,42,30.24,30.17,2,0,6,0.00
2014-9-27,83.8,67.8,57.4,59.0,55.4,53.0,88,67,36,30.24,30.17,2,0,4,0.00
2014-9-28,86.2,69.9,60.6,63.0,58.0,54.0,83,67,38,30.18,30.02,2,0,3,0.00
2014-9-29,78.3,67.6,62.6,64.0,60.3,57.0,87,78,58,30.02,29.91,0,0,2,0.00
2014-9-30,75.5,64.7,59.4,61.0,58.5,52.0,95,81,47,29.99,29.92,2,0,3,0.00
2014-10-1,61.8,59.7,58.2,59.0,57.3,56.0,95,91,86,30.09,29.98,2,0,6,0.00
2014-10-2,66.0,60.5,56.9,58.0,56.7,56.0,96,87,73,30.16,30.08,1,0,5,0.00
2014-10-3,72.8,60.9,55.3,56.0,53.3,49.0,94,78,47,30.13,29.85,1,0,3,0.00
2014-10-4,69.8,59.5,47.0,64.0,55.6,37.0,98,87,65,29.84,29.53,3,0,4,0.50
2014-10-5,61.1,47.9,39.3,41.0,37.8,34.0,84,69,44,30.01,29.73,2,0,6,0.00
2014-10-6,73.9,56.2,43.9,52.0,44.1,38.0,86,67,37,30.08,30.00,2,0,6,0.00
2014-10-7,71.6,62.1,55.7,60.0,53.9,51.0,95,76,52,30.06,29.91,2,0,6,0.05
2014-10-8,72.2,62.4,56.3,61.0,53.1,41.0,97,74,46,29.97,29.80,3,0,6,0.18
2014-10-9,68.4,56.7,48.4,44.0,41.9,39.0,79,59,38,30.08,29.96,2,0,7,0.00
2014-10-10,59.0,53.4,45.1,47.0,42.5,39.0,80,67,52,30.15,30.06,0,0,2,0.00
2014-10-11,53.1,49.6,46.6,50.0,47.9,46.0,97,94,78,30.19,30.04,1,0,4,0.35
2014-10-12,64.6,50.0,42.6,46.0,41.5,35.0,97,75,38,30.34,30.18,2,0,4,0.00
2014-10-13,61.3,55.7,47.5,58.0,50.9,43.0,97,84,75,30.35,30.27,0,0,2,0.06
2014-10-14,77.3,70.5,64.5,67.0,64.2,63.0,99,81,63,30.23,30.10,1,0,5,0.00
2014-10-15,74.5,69.1,65.8,69.0,67.0,64.0,98,93,83,30.10,29.82,2,0,7,0.50
2014-10-16,71.2,64.6,56.8,68.0,60.8,54.0,98,88,64,29.82,29.69,1,0,5,0.91
2014-10-17,72.9,60.9,53.9,56.0,53.4,51.0,97,78,48,29.76,29.68,1,0,8,0.00
2014-10-18,65.8,57.6,51.2,56.0,50.4,43.0,96,78,56,29.75,29.59,2,0,6,0.00
2014-10-19,54.3,47.8,38.5,45.0,36.2,29.0,81,65,41,30.08,29.74,2,0,5,0.00
2014-10-20,61.6,54.0,45.5,42.0,38.2,33.0,69,56,44,30.14,29.99,2,0,5,0.00
2014-10-22,49.4,49.1,48.2,48.0,47.9,47.0,97,96,96,29.84,29.75,1,0,5,0.66
2014-10-23,51.6,49.2,48.0,50.0,47.0,44.0,97,92,85,29.80,29.71,3,0,4,0.26
2014-10-24,55.7,49.7,46.1,45.0,44.0,40.0,92,81,63,29.86,29.78,1,0,7,0.00
2014-10-25,69.0,55.3,42.6,48.0,41.2,34.0,76,60,46,29.89,29.58,3,0,7,0.00
2014-10-26,63.6,54.7,48.9,47.0,40.5,36.0,80,60,43,29.87,29.57,3,0,6,0.00
2014-10-27,65.8,55.5,46.6,40.0,38.6,37.0,73,54,38,30.05,29.86,2,0,2,0.00
2014-10-28,73.9,56.6,46.7,54.0,45.3,37.0,75,67,48,30.05,29.95,0,0,2,0.00
2014-10-29,49.0,48.5,48.2,47.0,47.0,47.0,94,94,94,29.94,29.93,0,0,0,0.03
2014-10-30,58.0,52.3,47.8,39.0,36.9,35.0,64,56,49,30.02,29.99,0,0,1,0.00
2014-10-31,47.3,46.8,46.6,40.0,40.0,40.0,77,76,75,29.91,29.91,0,0,1,0.00
2014-11-1,44.7,41.3,39.0,39.0,36.7,36.0,94,84,71,29.85,29.79,4,0,6,0.46
2014-11-2,47.5,40.7,36.5,37.0,29.8,22.0,92,67,43,30.08,29.78,4,0,5,0.00
2014-11-3,59.8,45.3,34.1,31.0,26.0,21.0,72,49,29,30.19,30.08,3,0,5,0.00
2014-11-4,70.6,56.9,48.5,40.0,30.3,25.0,57,38,20,30.19,30.03,3,0,4,0.00
2014-11-5,60.3,54.2,49.1,44.0,39.1,35.0,69,57,42,30.16,30.02,2,0,4,0.00
2014-11-6,51.7,46.8,44.9,47.0,44.2,36.0,97,92,55,30.14,29.61,1,0,4,0.19
2014-11-7,49.4,44.4,40.6,45.0,41.1,38.0,98,88,68,29.68,29.60,3,0,4,0.00
2014-11-8,40.8,40.0,39.4,32.0,30.9,30.0,73,70,67,29.97,29.95,0,0,3,0.00
2014-11-9,54.7,44.9,40.0,37.0,34.9,32.0,83,69,47,29.99,29.92,2,0,5,0.00
2014-11-10,55.6,52.4,49.2,35.0,33.8,33.0,54,50,47,30.20,30.18,1,0,3,0.00
2014-11-11,53.2,53.0,52.7,50.0,50.0,50.0,91,90,90,29.97,29.96,0,0,0,0.00
2014-11-13,41.3,35.1,32.3,34.0,32.2,31.0,95,89,66,30.05,30.01,0,0,1,0.03
2014-11-14,41.6,33.4,29.2,32.0,24.0,18.0,96,71,43,30.21,29.98,2,0,5,0.03
2014-11-15,42.5,31.8,26.7,22.0,19.8,16.0,80,62,40,30.38,30.21,2,0,4,0.00
2014-11-16,40.2,34.8,28.1,34.0,24.8,16.0,91,67,60,30.41,30.12,1,0,3,0.03
2014-11-17,44.5,39.4,35.8,44.0,38.1,34.0,97,95,81,30.12,29.53,2,0,4,0.48
2014-11-18,39.3,26.6,19.7,34.0,12.1,5.0,81,55,39,30.14,29.64,7,1,9,0.00
2014-11-19,32.7,23.5,17.2,15.0,8.0,5.0,67,52,35,30.32,30.08,5,1,6,0.00
2014-11-20,43.9,32.4,23.2,26.0,17.9,8.0,72,56,41,30.07,29.88,4,0,8,0.00
2014-11-21,36.3,27.0,22.3,13.0,10.6,9.0,62,51,36,30.54,30.08,3,0,6,0.00
2014-11-22,42.8,31.9,19.9,21.0,15.2,11.0,68,52,34,30.53,30.24,5,0,8,0.00
2014-11-23,57.3,44.4,36.5,44.0,27.5,21.0,85,53,35,30.24,29.98,3,0,4,0.00
2014-11-24,71.0,62.0,48.9,63.0,57.3,45.0,98,85,68,29.98,29.58,5,1,11,0.31
2014-11-25,63.5,51.0,41.9,58.0,37.6,30.0,85,61,46,30.18,29.74,3,0,8,0.00
2014-11-26,44.0,35.7,31.8,35.0,31.4,30.0,96,86,61,30.21,29.80,2,0,7,0.17
2014-11-27,33.7,31.8,27.1,32.0,29.7,23.0,96,91,82,30.10,29.86,1,0,3,0.00
2014-11-28,34.2,27.3,20.7,24.0,19.8,13.0,90,74,57,30.30,30.10,5,0,6,0.00
2014-11-29,33.1,26.7,20.2,27.0,18.0,12.0,77,70,61,30.39,30.25,1,0,3,0.00
2014-11-30,48.1,40.9,33.4,39.0,34.1,27.0,89,77,67,30.24,30.10,1,0,4,0.61
2014-12-1,63.2,47.5,36.7,51.0,40.9,29.0,91,78,62,30.47,30.10,2,0,4,0.07
2014-12-2,39.8,35.1,31.2,39.0,28.4,17.0,96,78,57,30.63,30.30,3,0,6,0.10
2014-12-3,42.4,39.6,34.7,42.0,37.8,29.0,98,93,77,30.30,30.00,4,0,7,0.13
2014-12-4,44.1,34.9,29.4,29.0,25.0,21.0,82,68,51,30.54,30.25,2,0,6,0.00
2014-12-5,38.4,33.5,27.3,36.0,28.8,21.0,96,83,66,30.60,30.37,2,0,4,0.27
2014-12-6,44.0,40.6,36.8,44.0,40.0,36.0,98,97,96,30.37,30.11,1,0,9,0.90
2014-12-7,41.5,34.7,25.5,37.0,22.4,8.0,96,64,37,30.63,30.21,4,1,9,0.00
2014-12-8,31.5,25.7,20.6,28.0,15.4,2.0,88,66,41,30.70,30.36,3,0,8,0.00
2014-12-9,39.4,35.7,31.5,38.0,34.3,29.0,97,94,88,30.35,29.72,4,0,10,0.14
2014-12-10,38.1,33.7,29.2,35.0,29.6,24.0,93,85,77,29.72,29.63,2,0,6,0.01
2014-12-11,33.5,29.9,27.9,28.0,25.9,23.0,92,85,78,29.91,29.65,3,0,7,0.01
2014-12-12,36.3,31.8,28.8,27.0,25.1,22.0,89,76,65,30.04,29.91,2,0,5,0.00
2014-12-13,41.8,34.9,30.0,30.0,27.5,24.0,81,75,61,30.03,29.93,1,0,5,0.00
2014-12-14,45.0,38.1,34.7,34.0,31.3,29.0,83,77,63,30.00,29.89,1,0,4,0.00
2014-12-15,48.9,36.9,30.4,36.0,31.3,28.0,93,81,58,30.13,30.00,1,0,2,0.00
2014-12-16,49.6,39.8,32.5,44.0,37.1,31.0,97,90,73,30.13,29.86,0,0,2,0.21
2014-12-17,49.1,42.6,34.6,44.0,37.7,27.0,98,84,69,29.93,29.83,3,0,6,0.02
2014-12-18,38.8,35.1,30.6,28.0,26.0,23.0,76,69,62,30.03,29.91,2,0,6,0.00
2014-12-19,36.1,32.7,28.7,27.0,23.8,21.0,75,70,59,30.21,29.99,2,0,4,0.00
2014-12-20,30.2,28.8,28.1,23.0,21.8,21.0,78,75,72,30.32,30.20,0,0,3,0.00
2014-12-21,33.7,30.9,28.6,28.0,25.6,22.0,85,81,77,30.36,30.29,0,0,2,0.00
2014-12-22,42.4,35.6,31.4,41.0,33.2,27.0,96,91,85,30.36,30.15,1,0,5,0.01
2014-12-23,44.3,43.4,42.2,44.0,42.6,41.0,98,97,96,30.17,30.08,3,0,7,0.32
2014-12-24,59.1,48.5,43.8,59.0,48.1,43.0,99,98,98,30.09,29.54,2,0,5,1.09
2014-12-25,60.8,47.7,38.1,61.0,39.7,31.0,99,75,55,30.15,29.53,4,1,8,0.08
2014-12-26,49.1,38.5,32.1,34.0,30.4,28.0,86,73,50,30.28,30.14,2,0,4,0.00
2014-12-27,55.7,44.2,36.6,38.0,33.1,30.0,80,66,48,30.29,30.08,2,0,5,0.00
2014-12-28,50.7,43.9,38.9,44.0,38.7,32.0,95,82,70,30.09,29.89,1,0,5,0.07
2014-12-29,43.8,35.2,27.9,32.0,23.4,20.0,77,63,43,30.27,30.08,2,0,4,0.00
2014-12-30,33.3,27.2,21.1,21.0,16.5,12.0,75,65,52,30.42,30.27,1,0,4,0.00
2014-12-31,30.9,23.7,20.2,14.0,10.8,8.0,73,59,42,30.41,30.21,2,0,5,0.00
2015-1-1,37.2,27.9,18.7,18.0,12.6,9.0,67,54,37,30.21,30.01,3,0,10,0.00
2015-1-2,41.4,32.6,28.3,21.0,19.3,18.0,68,59,44,30.46,30.05,2,0,5,0.00